Time;durP1;ratioP1;P1;durP2;ratioP2;P2;SDS_P1;SDS_P2;PMS_P1;PMS_P2;Temp;Humidity;BMP_temperature;BMP_pressure;BME280_temperature;BME280_humidity;BME280_pressure;Samples;Min_cycle;Max_cycle;Signal;HPM_P1;HPM_P2
2022/12/19 00:00:05;;;;;;;;;;;;;;;10.88;67.29;101386.84;1265737;23;622;-68
2022/12/19 00:00:56;;;;;;;;;;;;;;;10.89;67.14;101377.91;1265893;23;610;-68
2022/12/19 00:01:46;;;;;;;;;;;;;;;10.90;66.98;101374.28;1265651;23;638;-68
2022/12/19 00:02:37;;;;;;;;;;;;;;;10.88;67.26;101384.19;1265806;23;626;-68
2022/12/19 00:03:27;;;;;;;;;;;;;;;10.89;66.84;101378.75;1265556;23;689;-68
2022/12/19 00:04:19;;;;;;;;;;;;;;;10.87;66.94;101375.31;1265705;23;677;-68
2022/12/19 00:05:10;;;;;;;;;;;;;;;10.88;67.33;101374.38;1267416;23;666;-68
2022/12/19 00:06:00;;;;;;;;;;;;;;;10.88;67.40;101376.19;1265566;23;594;-68
2022/12/19 00:06:51;;;;;;;;;;;;;;;10.85;66.75;101379.00;1265736;23;674;-68
2022/12/19 00:07:41;;;;;;;;;;;;;;;10.87;67.07;101371.78;1265505;23;638;-68
2022/12/19 00:08:32;;;;;;;;;;;;;;;10.88;67.11;101370.84;1265619;23;651;-68
2022/12/19 00:09:22;;;;;;;;;;;;;;;10.85;67.05;101371.00;1265473;23;654;-68
2022/12/19 00:10:12;;;;;;;;;;;;;;;10.85;67.22;101369.22;1265457;23;662;-68
2022/12/19 00:11:03;;;;;;;;;;;;;;;10.86;66.91;101365.59;1265810;23;607;-69
2022/12/19 00:11:53;;;;;;;;;;;;;;;10.87;66.64;101356.66;1265586;23;638;-69
2022/12/19 00:12:44;;;;;;;;;;;;;;;10.88;66.67;101352.19;1265688;23;631;-68
2022/12/19 00:13:34;;;;;;;;;;;;;;;10.89;66.95;101348.56;1265571;23;634;-69
2022/12/19 00:14:25;;;;;;;;;;;;;;;10.88;66.98;101339.72;1265677;23;681;-69
2022/12/19 00:15:15;;;;;;;;;;;;;;;10.88;66.94;101336.19;1265435;23;607;-69
2022/12/19 00:16:06;;;;;;;;;;;;;;;10.89;66.69;101332.56;1265526;23;673;-69
2022/12/19 00:16:56;;;;;;;;;;;;;;;10.86;67.28;101335.41;1265749;23;654;-69
2022/12/19 00:17:46;;;;;;;;;;;;;;;10.85;66.68;101329.22;1265615;23;642;-69
2022/12/19 00:18:37;;;;;;;;;;;;;;;10.86;66.51;101335.41;1265803;23;618;-69
2022/12/19 00:19:27;;;;;;;;;;;;;;;10.85;66.91;101339.03;1265564;23;607;-69
2022/12/19 00:20:18;;;;;;;;;;;;;;;10.87;66.61;101345.13;1265812;23;634;-69
2022/12/19 00:21:08;;;;;;;;;;;;;;;10.87;66.75;101347.78;1265932;23;662;-69
2022/12/19 00:21:59;;;;;;;;;;;;;;;10.86;66.81;101352.28;1266114;23;642;-69
2022/12/19 00:22:49;;;;;;;;;;;;;;;10.84;67.29;101363.97;1265923;23;615;-69
2022/12/19 00:23:40;;;;;;;;;;;;;;;10.85;66.70;101358.53;1266103;23;693;-69
2022/12/19 00:24:30;;;;;;;;;;;;;;;10.85;67.33;101371.88;1265265;23;603;-69
2022/12/19 00:25:20;;;;;;;;;;;;;;;10.86;67.49;101370.06;1266039;23;666;-69
2022/12/19 00:26:11;;;;;;;;;;;;;;;10.84;66.74;101367.50;1266215;23;618;-69
2022/12/19 00:27:01;;;;;;;;;;;;;;;10.85;66.91;101357.69;1265938;23;666;-69
2022/12/19 00:27:52;;;;;;;;;;;;;;;10.83;67.26;101352.44;1266255;23;622;-69
2022/12/19 00:28:42;;;;;;;;;;;;;;;10.83;67.11;101351.56;1266011;23;991;-69
2022/12/19 00:29:33;;;;;;;;;;;;;;;10.83;67.07;101351.56;1266234;23;658;-69
2022/12/19 00:30:23;;;;;;;;;;;;;;;10.84;66.94;101345.31;1266832;23;705;-69
2022/12/19 00:31:14;;;;;;;;;;;;;;;10.84;66.82;101342.63;1265998;23;646;-68
2022/12/19 00:32:04;;;;;;;;;;;;;;;10.84;66.88;101338.16;1266020;23;642;-69
2022/12/19 00:32:55;;;;;;;;;;;;;;;10.84;66.94;101337.31;1266136;23;587;-69
2022/12/19 00:33:45;;;;;;;;;;;;;;;10.83;66.92;101336.44;1265899;23;612;-68
2022/12/19 00:34:36;;;;;;;;;;;;;;;10.81;67.30;101343.66;1266066;23;642;-69
2022/12/19 00:35:26;;;;;;;;;;;;;;;10.82;67.20;101341.88;1266011;23;681;-69
2022/12/19 00:36:17;;;;;;;;;;;;;;;10.82;67.24;101349.84;1266012;23;638;-69
2022/12/19 00:37:07;;;;;;;;;;;;;;;10.82;67.15;101352.53;1266171;23;674;-69
2022/12/19 00:37:58;;;;;;;;;;;;;;;10.83;66.96;101346.25;1265984;23;623;-69
2022/12/19 00:38:48;;;;;;;;;;;;;;;10.86;66.82;101348.75;1265456;23;1889;-69
2022/12/19 00:39:38;;;;;;;;;;;;;;;10.86;66.69;101343.41;1265866;23;654;-69
2022/12/19 00:40:29;;;;;;;;;;;;;;;10.84;66.94;101331.97;1266230;23;638;-69
2022/12/19 00:41:19;;;;;;;;;;;;;;;10.85;66.90;101329.22;1265983;23;587;-69
2022/12/19 00:42:10;;;;;;;;;;;;;;;10.83;66.62;101330.25;1259646;23;669;-68
2022/12/19 00:43:00;;;;;;;;;;;;;;;10.82;67.05;101328.53;1261210;23;662;-69
2022/12/19 00:43:50;;;;;;;;;;;;;;;10.81;66.96;101319.66;1267436;23;634;-69
2022/12/19 00:44:41;;;;;;;;;;;;;;;10.82;67.32;101324.06;1266123;23;729;-68
2022/12/19 00:45:31;;;;;;;;;;;;;;;10.82;67.42;101328.53;1265871;23;603;-69
2022/12/19 00:46:22;;;;;;;;;;;;;;;10.81;66.48;101332.16;1266027;23;835;-69
2022/12/19 00:47:12;;;;;;;;;;;;;;;10.80;67.01;101317.97;1265826;23;657;-69
2022/12/19 00:48:03;;;;;;;;;;;;;;;10.81;66.94;101316.16;1265895;23;602;-69
2022/12/19 00:48:53;;;;;;;;;;;;;;;10.81;67.32;101305.47;1266180;23;630;-69
2022/12/19 00:49:43;;;;;;;;;;;;;;;10.82;67.15;101301.88;1265898;23;610;-69
2022/12/19 00:50:34;;;;;;;;;;;;;;;10.80;67.10;101301.97;1266118;23;669;-69
2022/12/19 00:51:24;;;;;;;;;;;;;;;10.78;66.90;101301.19;1265818;23;594;-69
2022/12/19 00:52:15;;;;;;;;;;;;;;;10.81;66.82;101300.16;1266046;23;728;-69
2022/12/19 00:53:05;;;;;;;;;;;;;;;10.79;67.02;101298.44;1265775;23;661;-69
2022/12/19 00:53:56;;;;;;;;;;;;;;;10.81;67.46;101297.50;1265888;23;614;-69
2022/12/19 00:54:46;;;;;;;;;;;;;;;10.79;66.75;101295.75;1266159;23;613;-69
2022/12/19 00:55:36;;;;;;;;;;;;;;;10.80;67.21;101283.28;1265982;23;630;-69
2022/12/19 00:56:27;;;;;;;;;;;;;;;10.78;66.95;101288.72;1266137;23;634;-68
2022/12/19 00:57:17;;;;;;;;;;;;;;;10.81;66.90;101284.16;1265783;23;713;-68
2022/12/19 00:58:08;;;;;;;;;;;;;;;10.79;67.27;101282.44;1265968;23;724;-69
2022/12/19 00:58:58;;;;;;;;;;;;;;;10.79;67.10;101285.09;1265640;23;1913;-69
2022/12/19 00:59:48;;;;;;;;;;;;;;;10.79;66.64;101285.09;1265764;23;591;-69
2022/12/19 01:00:39;;;;;;;;;;;;;;;10.78;67.05;101283.38;1266177;23;665;-69
2022/12/19 01:01:29;;;;;;;;;;;;;;;10.77;66.90;101286.13;1266066;23;630;-69
2022/12/19 01:02:20;;;;;;;;;;;;;;;10.78;67.38;101275.38;1266162;23;658;-69
2022/12/19 01:03:10;;;;;;;;;;;;;;;10.78;67.35;101279.84;1265675;23;642;-70
2022/12/19 01:04:01;;;;;;;;;;;;;;;10.77;67.09;101275.47;1266078;23;1042;-69
2022/12/19 01:04:51;;;;;;;;;;;;;;;10.77;67.33;101273.66;1265735;23;641;-69
2022/12/19 01:05:42;;;;;;;;;;;;;;;10.77;67.12;101284.34;1265907;23;657;-69
2022/12/19 01:06:32;;;;;;;;;;;;;;;10.76;67.11;101287.94;1266213;23;638;-69
2022/12/19 01:07:22;;;;;;;;;;;;;;;10.78;67.52;101293.19;1265949;23;617;-69
2022/12/19 01:08:13;;;;;;;;;;;;;;;10.79;67.04;101282.44;1266099;23;630;-69
2022/12/19 01:09:03;;;;;;;;;;;;;;;10.80;67.21;101285.97;1265619;23;626;-69
2022/12/19 01:09:54;;;;;;;;;;;;;;;10.78;67.39;101291.38;1266074;23;610;-69
2022/12/19 01:10:44;;;;;;;;;;;;;;;10.80;67.09;101283.28;1266187;23;606;-69
2022/12/19 01:12:46;;;;;;;;;;;;;;;10.81;67.09;101284.16;1264260;23;1077;-70
2022/12/19 01:13:37;;;;;;;;;;;;;;;10.79;67.22;101282.44;1266086;23;634;-69
2022/12/19 01:14:27;;;;;;;;;;;;;;;10.78;67.15;101280.72;1265810;23;654;-69
2022/12/19 01:15:19;;;;;;;;;;;;;;;10.81;67.14;101286.81;1265869;23;717;-69
2022/12/19 01:16:09;;;;;;;;;;;;;;;10.81;66.85;101286.81;1267660;23;637;-70
2022/12/19 01:17:00;;;;;;;;;;;;;;;10.79;67.37;101295.75;1265864;23;685;-70
2022/12/19 01:17:50;;;;;;;;;;;;;;;10.78;67.10;101290.53;1265862;23;689;-70
2022/12/19 01:18:41;;;;;;;;;;;;;;;10.77;67.00;101295.00;1265902;23;662;-70
2022/12/19 01:19:31;;;;;;;;;;;;;;;10.79;67.12;101278.91;1266110;23;674;-69
2022/12/19 01:20:21;;;;;;;;;;;;;;;10.78;67.40;101264.72;1265686;23;529;-69
2022/12/19 01:21:12;;;;;;;;;;;;;;;10.79;67.15;101266.44;1266082;23;626;-69
2022/12/19 01:22:02;;;;;;;;;;;;;;;10.77;67.52;101273.66;1265689;23;689;-69
2022/12/19 01:22:53;;;;;;;;;;;;;;;10.76;67.31;101277.28;1265932;23;614;-70
2022/12/19 01:23:43;;;;;;;;;;;;;;;10.77;67.51;101271.00;1266220;23;641;-69
2022/12/19 01:24:33;;;;;;;;;;;;;;;10.77;67.03;101268.34;1265758;23;661;-70
2022/12/19 01:25:24;;;;;;;;;;;;;;;10.78;67.57;101270.06;1266118;23;607;-69
2022/12/19 01:26:14;;;;;;;;;;;;;;;10.79;67.51;101260.25;1265648;23;655;-69
2022/12/19 01:27:05;;;;;;;;;;;;;;;10.77;67.51;101265.66;1259477;23;626;-69
2022/12/19 01:27:55;;;;;;;;;;;;;;;10.78;67.08;101258.53;1261226;23;677;-69
2022/12/19 01:28:46;;;;;;;;;;;;;;;10.77;67.27;101263.00;1259406;23;617;-70
2022/12/19 01:29:36;;;;;;;;;;;;;;;10.75;67.13;101259.56;1261088;23;681;-70
2022/12/19 01:30:26;;;;;;;;;;;;;;;10.77;67.11;101256.81;1267442;23;610;-69
2022/12/19 01:31:17;;;;;;;;;;;;;;;10.77;67.04;101254.16;1265997;23;681;-69
2022/12/19 01:32:07;;;;;;;;;;;;;;;10.76;67.29;101253.28;1265205;23;645;-69
2022/12/19 01:32:58;;;;;;;;;;;;;;;10.77;66.80;101263.00;1266030;23;658;-69
2022/12/19 01:33:48;;;;;;;;;;;;;;;10.76;67.22;101260.44;1265750;23;602;-70
2022/12/19 01:34:39;;;;;;;;;;;;;;;10.75;67.19;101253.38;1265897;23;705;-70
2022/12/19 01:35:29;;;;;;;;;;;;;;;10.77;67.18;101251.47;1266001;23;665;-71
2022/12/19 01:36:19;;;;;;;;;;;;;;;10.78;67.04;101258.53;1265897;23;658;-70
2022/12/19 01:37:10;;;;;;;;;;;;;;;10.75;67.11;101248.03;1266086;23;626;-70
2022/12/19 01:38:00;;;;;;;;;;;;;;;10.76;66.92;101255.94;1265713;23;945;-70
2022/12/19 01:38:51;;;;;;;;;;;;;;;10.77;67.03;101247.00;1265830;23;1889;-70
2022/12/19 01:39:41;;;;;;;;;;;;;;;10.77;67.27;101247.00;1266214;23;674;-69
2022/12/19 01:40:31;;;;;;;;;;;;;;;10.76;66.91;101253.28;1265806;23;666;-70
2022/12/19 01:41:22;;;;;;;;;;;;;;;10.77;67.07;101254.16;1266024;23;678;-69
2022/12/19 01:42:13;;;;;;;;;;;;;;;10.77;67.17;101248.81;1265594;23;643;-69
2022/12/19 01:43:03;;;;;;;;;;;;;;;10.75;67.46;101254.25;1265737;23;669;-69
2022/12/19 01:43:54;;;;;;;;;;;;;;;10.74;67.32;101249.03;1265742;23;641;-70
2022/12/19 01:44:44;;;;;;;;;;;;;;;10.75;67.31;101254.25;1265870;23;614;-70
2022/12/19 01:45:36;;;;;;;;;;;;;;;10.75;66.95;101256.03;1265882;23;653;-70
2022/12/19 01:46:26;;;;;;;;;;;;;;;10.75;67.20;101253.38;1265733;23;622;-69
2022/12/19 01:47:17;;;;;;;;;;;;;;;10.74;67.46;101241.88;1265914;23;630;-69
2022/12/19 01:48:07;;;;;;;;;;;;;;;10.73;67.57;101240.16;1259376;23;650;-69
2022/12/19 01:48:58;;;;;;;;;;;;;;;10.76;67.36;101233.78;1261064;23;598;-69
2022/12/19 01:49:48;;;;;;;;;;;;;;;10.75;67.49;101243.56;1267273;23;662;-69
2022/12/19 01:50:39;;;;;;;;;;;;;;;10.73;66.71;101240.16;1265821;23;621;-70
2022/12/19 01:51:29;;;;;;;;;;;;;;;10.74;67.41;101241.03;1265604;23;689;-69
2022/12/19 01:52:19;;;;;;;;;;;;;;;10.73;67.18;101237.50;1265736;23;610;-69
2022/12/19 01:53:10;;;;;;;;;;;;;;;10.75;67.40;101234.72;1265940;23;692;-69
2022/12/19 01:54:00;;;;;;;;;;;;;;;10.72;67.21;101230.47;1265495;23;603;-69
2022/12/19 01:54:51;;;;;;;;;;;;;;;10.71;67.20;101231.41;1265931;23;737;-69
2022/12/19 01:55:41;;;;;;;;;;;;;;;10.72;67.18;101225.13;1266230;23;646;-69
2022/12/19 01:56:32;;;;;;;;;;;;;;;10.71;67.27;101223.41;1265801;23;669;-69
2022/12/19 01:57:22;;;;;;;;;;;;;;;10.73;67.33;101221.50;1266163;23;744;-69
2022/12/19 01:58:12;;;;;;;;;;;;;;;10.74;67.39;101212.56;1265728;23;642;-69
2022/12/19 01:59:03;;;;;;;;;;;;;;;10.73;67.32;101216.19;1265801;23;1889;-69
2022/12/19 01:59:53;;;;;;;;;;;;;;;10.73;67.14;101216.19;1265629;23;662;-69
2022/12/19 02:00:44;;;;;;;;;;;;;;;10.74;66.83;101209.03;1265710;23;634;-69
2022/12/19 02:01:34;;;;;;;;;;;;;;;10.77;66.81;101208.84;1266053;23;614;-69
2022/12/19 02:02:25;;;;;;;;;;;;;;;10.77;66.80;101207.03;1265715;23;634;-70
2022/12/19 02:03:15;;;;;;;;;;;;;;;10.75;67.11;101202.72;1265920;23;677;-70
2022/12/19 02:04:05;;;;;;;;;;;;;;;10.75;67.13;101213.41;1265787;23;630;-69
2022/12/19 02:04:56;;;;;;;;;;;;;;;10.76;67.27;101215.13;1265872;23;554;-69
2022/12/19 02:05:46;;;;;;;;;;;;;;;10.75;66.90;101216.06;1265084;23;614;-69
2022/12/19 02:06:37;;;;;;;;;;;;;;;10.74;67.18;101212.56;1265804;23;633;-69
2022/12/19 02:07:27;;;;;;;;;;;;;;;10.75;66.89;101218.72;1265909;23;594;-69
2022/12/19 02:08:17;;;;;;;;;;;;;;;10.76;67.31;101217.78;1265629;23;653;-69
2022/12/19 02:09:08;;;;;;;;;;;;;;;10.73;67.57;101197.53;1266121;23;638;-69
2022/12/19 02:09:58;;;;;;;;;;;;;;;10.72;67.18;101209.13;1265752;23;639;-69
2022/12/19 02:10:49;;;;;;;;;;;;;;;10.72;67.53;101211.78;1265851;23;587;-69
2022/12/19 02:11:40;;;;;;;;;;;;;;;10.72;66.73;101209.13;1267421;23;634;-70
2022/12/19 02:12:31;;;;;;;;;;;;;;;10.71;67.79;101206.56;1266132;23;623;-70
2022/12/19 02:13:21;;;;;;;;;;;;;;;10.71;67.00;101203.88;1267525;23;645;-69
2022/12/19 02:14:12;;;;;;;;;;;;;;;10.72;67.46;101195.81;1265900;23;602;-69
2022/12/19 02:15:02;;;;;;;;;;;;;;;10.74;67.03;101203.72;1266014;23;645;-69
2022/12/19 02:15:53;;;;;;;;;;;;;;;10.73;67.17;101186.84;1265814;23;634;-69
2022/12/19 02:16:43;;;;;;;;;;;;;;;10.74;67.45;101204.56;1265889;23;631;-69
2022/12/19 02:17:33;;;;;;;;;;;;;;;10.75;67.42;101197.41;1265734;23;642;-69
2022/12/19 02:18:24;;;;;;;;;;;;;;;10.77;67.42;101192.84;1265931;23;828;-69
2022/12/19 02:19:14;;;;;;;;;;;;;;;10.74;67.22;101191.25;1266383;23;1928;-69
2022/12/19 02:20:05;;;;;;;;;;;;;;;10.74;66.92;101193.06;1265778;23;630;-69
2022/12/19 02:20:55;;;;;;;;;;;;;;;10.74;67.45;101185.91;1266010;23;633;-69
2022/12/19 02:21:45;;;;;;;;;;;;;;;10.74;67.28;101199.25;1265751;23;626;-69
2022/12/19 02:22:36;;;;;;;;;;;;;;;10.71;67.45;101187.91;1265804;23;623;-69
2022/12/19 02:23:26;;;;;;;;;;;;;;;10.73;67.50;101194.84;1265746;23;673;-70
2022/12/19 02:24:17;;;;;;;;;;;;;;;10.74;67.51;101191.25;1265756;23;646;-70
2022/12/19 02:25:07;;;;;;;;;;;;;;;10.73;67.46;101191.34;1259429;23;553;-69
2022/12/19 02:25:58;;;;;;;;;;;;;;;10.73;66.99;101184.19;1259326;23;630;-69
2022/12/19 02:26:48;;;;;;;;;;;;;;;10.73;67.46;101194.84;1267315;23;653;-69
2022/12/19 02:27:38;;;;;;;;;;;;;;;10.75;66.91;101184.06;1265779;23;618;-69
2022/12/19 02:28:29;;;;;;;;;;;;;;;10.75;67.51;101184.94;1265803;23;642;-69
2022/12/19 02:29:19;;;;;;;;;;;;;;;10.73;67.48;101181.53;1265704;23;670;-69
2022/12/19 02:30:10;;;;;;;;;;;;;;;10.74;67.18;101175.25;1265683;23;741;-69
2022/12/19 02:31:00;;;;;;;;;;;;;;;10.73;66.83;101178.88;1265538;23;653;-69
2022/12/19 02:31:51;;;;;;;;;;;;;;;10.72;67.19;101179.81;1265746;23;619;-69
2022/12/19 02:32:42;;;;;;;;;;;;;;;10.72;67.19;101178.94;1266039;23;647;-69
2022/12/19 02:33:32;;;;;;;;;;;;;;;10.70;67.67;101184.38;1267538;23;638;-69
2022/12/19 02:34:23;;;;;;;;;;;;;;;10.72;67.49;101178.94;1265726;23;591;-69
2022/12/19 02:35:13;;;;;;;;;;;;;;;10.73;67.47;101160.19;1265879;23;639;-69
2022/12/19 02:36:03;;;;;;;;;;;;;;;10.74;67.25;101158.41;1259247;23;670;-68
2022/12/19 02:36:54;;;;;;;;;;;;;;;10.73;67.46;101165.53;1259246;23;602;-69
2022/12/19 02:37:44;;;;;;;;;;;;;;;10.74;67.10;101172.59;1267299;23;658;-69
2022/12/19 02:38:35;;;;;;;;;;;;;;;10.73;67.56;101157.53;1265757;23;593;-69
2022/12/19 02:39:26;;;;;;;;;;;;;;;10.73;67.22;101154.88;1265994;23;646;-69
2022/12/19 02:40:16;;;;;;;;;;;;;;;10.73;67.03;101154.88;1265897;23;645;-69
2022/12/19 02:41:06;;;;;;;;;;;;;;;10.72;66.98;101142.50;1265674;23;661;-68
2022/12/19 02:41:57;;;;;;;;;;;;;;;10.73;67.03;101140.69;1265775;23;657;-69
2022/12/19 02:42:47;;;;;;;;;;;;;;;10.73;67.59;101143.34;1265306;23;1102;-68
2022/12/19 02:43:38;;;;;;;;;;;;;;;10.74;67.61;101145.06;1265666;23;610;-68
2022/12/19 02:44:28;;;;;;;;;;;;;;;10.71;67.29;101135.44;1265990;23;615;-68
2022/12/19 02:45:19;;;;;;;;;;;;;;;10.72;67.14;101137.16;1267608;23;645;-68
2022/12/19 02:46:09;;;;;;;;;;;;;;;10.70;67.75;101139.06;1265616;23;630;-68
2022/12/19 02:47:00;;;;;;;;;;;;;;;10.73;67.08;101136.22;1265751;23;673;-69
2022/12/19 02:47:50;;;;;;;;;;;;;;;10.73;67.19;101138.03;1265929;23;622;-69
2022/12/19 02:48:41;;;;;;;;;;;;;;;10.72;66.93;101130.97;1265616;23;614;-69
2022/12/19 02:49:31;;;;;;;;;;;;;;;10.71;67.21;101129.25;1265369;23;638;-69
2022/12/19 02:50:21;;;;;;;;;;;;;;;10.71;67.71;101121.25;1265678;23;614;-69
2022/12/19 02:51:12;;;;;;;;;;;;;;;10.72;67.50;101128.31;1265537;23;602;-69
2022/12/19 02:52:02;;;;;;;;;;;;;;;10.72;67.26;101133.63;1266349;23;634;-68
2022/12/19 02:52:53;;;;;;;;;;;;;;;10.71;67.11;101132.78;1265722;23;626;-68
2022/12/19 02:53:43;;;;;;;;;;;;;;;10.70;67.40;101128.41;1265870;23;886;-68
2022/12/19 02:54:34;;;;;;;;;;;;;;;10.72;66.91;101128.31;1258991;23;789;-68
2022/12/19 02:55:24;;;;;;;;;;;;;;;10.72;67.23;101110.50;1260897;23;657;-68
2022/12/19 02:56:14;;;;;;;;;;;;;;;10.72;67.21;101114.97;1266964;23;692;-69
2022/12/19 02:57:05;;;;;;;;;;;;;;;10.72;67.24;101130.97;1265618;23;589;-69
2022/12/19 02:57:55;;;;;;;;;;;;;;;10.74;67.56;101127.28;1265762;23;602;-69
2022/12/19 02:58:46;;;;;;;;;;;;;;;10.72;67.48;101121.16;1259211;23;642;-69
2022/12/19 02:59:36;;;;;;;;;;;;;;;10.69;67.46;101118.69;1260862;23;633;-69
2022/12/19 03:00:27;;;;;;;;;;;;;;;10.71;67.39;101132.78;1267102;23;544;-69
2022/12/19 03:01:18;;;;;;;;;;;;;;;10.71;67.01;101129.25;1265531;23;634;-69
2022/12/19 03:02:08;;;;;;;;;;;;;;;10.72;67.21;101130.97;1265724;23;626;-69
2022/12/19 03:02:58;;;;;;;;;;;;;;;10.69;67.08;101132.00;1265415;23;639;-70
2022/12/19 03:03:49;;;;;;;;;;;;;;;10.69;67.22;101128.50;1265174;23;706;-69
2022/12/19 03:04:39;;;;;;;;;;;;;;;10.69;67.17;101124.03;1265442;23;704;-69
2022/12/19 03:05:30;;;;;;;;;;;;;;;10.69;67.02;101140.00;1265687;23;622;-69
2022/12/19 03:06:20;;;;;;;;;;;;;;;10.70;67.61;101131.06;1259278;23;634;-70
2022/12/19 03:07:11;;;;;;;;;;;;;;;10.69;67.41;101129.34;1260983;23;641;-69
2022/12/19 03:08:01;;;;;;;;;;;;;;;10.69;67.00;101125.81;1267213;23;692;-69
2022/12/19 03:08:52;;;;;;;;;;;;;;;10.70;67.02;101127.53;1266306;23;693;-69
2022/12/19 03:09:42;;;;;;;;;;;;;;;10.70;67.26;101124.88;1259148;23;610;-69
2022/12/19 03:10:33;;;;;;;;;;;;;;;10.70;66.80;101116.88;1260898;23;678;-69
2022/12/19 03:11:23;;;;;;;;;;;;;;;10.71;67.57;101116.78;1267181;23;641;-69
2022/12/19 03:12:14;;;;;;;;;;;;;;;10.73;67.62;101114.88;1265416;23;607;-69
2022/12/19 03:13:04;;;;;;;;;;;;;;;10.73;67.03;101122.88;1265700;23;657;-69
2022/12/19 03:13:55;;;;;;;;;;;;;;;10.73;67.17;101122.88;1265516;23;665;-69
2022/12/19 03:14:45;;;;;;;;;;;;;;;10.71;67.29;101114.13;1265679;23;853;-69
2022/12/19 03:15:35;;;;;;;;;;;;;;;10.73;67.38;101114.03;1265341;23;654;-69
2022/12/19 03:16:26;;;;;;;;;;;;;;;10.72;67.26;101118.50;1265665;23;701;-69
2022/12/19 03:17:19;;;;;;;;;;;;;;;10.73;67.45;101117.56;1265639;23;618;-69
2022/12/19 03:18:09;;;;;;;;;;;;;;;10.71;67.73;101119.47;1265715;23;682;-69
2022/12/19 03:19:00;;;;;;;;;;;;;;;10.71;67.28;101119.47;1265449;23;1889;-69
2022/12/19 03:19:50;;;;;;;;;;;;;;;10.71;67.23;101114.13;1265727;23;611;-69
2022/12/19 03:20:41;;;;;;;;;;;;;;;10.71;66.94;101119.47;1265496;23;650;-69
2022/12/19 03:21:31;;;;;;;;;;;;;;;10.70;67.54;101120.41;1265903;23;634;-70
2022/12/19 03:22:22;;;;;;;;;;;;;;;10.70;67.50;101108.88;1265687;23;708;-70
2022/12/19 03:23:12;;;;;;;;;;;;;;;10.71;67.21;101119.47;1265575;23;595;-70
2022/12/19 03:24:03;;;;;;;;;;;;;;;10.72;67.24;101114.97;1265542;23;553;-69
2022/12/19 03:24:53;;;;;;;;;;;;;;;10.71;67.73;101124.78;1265758;23;614;-70
2022/12/19 03:25:44;;;;;;;;;;;;;;;10.71;67.60;101126.59;1265603;23;661;-70
2022/12/19 03:26:35;;;;;;;;;;;;;;;10.71;67.83;101114.13;1265568;23;626;-69
2022/12/19 03:27:25;;;;;;;;;;;;;;;10.70;67.42;101109.75;1267184;23;641;-68
2022/12/19 03:28:16;;;;;;;;;;;;;;;10.71;67.45;101107.94;1258954;23;630;-68
2022/12/19 03:29:06;;;;;;;;;;;;;;;10.71;67.73;101108.78;1260860;23;658;-69
2022/12/19 03:29:57;;;;;;;;;;;;;;;10.72;66.99;101114.97;1266916;23;645;-69
2022/12/19 03:30:47;;;;;;;;;;;;;;;10.73;67.29;101111.38;1265446;23;689;-69
2022/12/19 03:31:37;;;;;;;;;;;;;;;10.72;67.13;101110.50;1266174;23;654;-70
2022/12/19 03:32:28;;;;;;;;;;;;;;;10.71;67.67;101111.47;1265447;23;543;-69
2022/12/19 03:33:19;;;;;;;;;;;;;;;10.73;67.26;101106.91;1265599;23;673;-69
2022/12/19 03:34:09;;;;;;;;;;;;;;;10.72;67.34;101102.50;1267116;23;649;-69
2022/12/19 03:35:00;;;;;;;;;;;;;;;10.71;67.42;101103.47;1265559;23;612;-69
2022/12/19 03:35:50;;;;;;;;;;;;;;;10.72;67.42;101104.31;1265233;23;646;-69
2022/12/19 03:36:41;;;;;;;;;;;;;;;10.72;67.66;101094.50;1265400;23;657;-69
2022/12/19 03:37:31;;;;;;;;;;;;;;;10.72;67.73;101097.19;1265923;23;689;-70
2022/12/19 03:38:22;;;;;;;;;;;;;;;10.72;67.42;101102.50;1265537;23;618;-70
2022/12/19 03:39:12;;;;;;;;;;;;;;;10.71;67.52;101095.47;1265530;23;1877;-69
2022/12/19 03:40:03;;;;;;;;;;;;;;;10.68;67.54;101087.66;1265510;23;642;-69
2022/12/19 03:40:53;;;;;;;;;;;;;;;10.69;67.44;101099.16;1265643;23;752;-69
2022/12/19 03:43:08;;;;;;;;;;;;;;;10.71;67.09;101100.78;1263805;23;623;-71
2022/12/19 03:43:59;;;;;;;;;;;;;;;10.73;67.50;101087.38;1265515;23;638;-71
2022/12/19 03:44:49;;;;;;;;;;;;;;;10.72;67.52;101080.34;1259038;23;614;-71
2022/12/19 03:45:40;;;;;;;;;;;;;;;10.72;67.55;101083.84;1259200;23;630;-71
2022/12/19 03:46:30;;;;;;;;;;;;;;;10.72;67.34;101091.84;1259098;23;669;-70
2022/12/19 03:47:21;;;;;;;;;;;;;;;10.71;68.00;101087.47;1260003;23;790;-68
2022/12/19 03:48:11;;;;;;;;;;;;;;;10.70;67.54;101088.41;1265545;23;684;-71
2022/12/19 03:49:02;;;;;;;;;;;;;;;10.72;67.41;101097.19;1265410;23;646;-69
2022/12/19 03:49:52;;;;;;;;;;;;;;;10.71;67.95;101086.59;1259260;23;642;-69
2022/12/19 03:50:43;;;;;;;;;;;;;;;10.72;67.13;101073.19;1253102;23;647;-72
2022/12/19 03:51:33;;;;;;;;;;;;;;;10.70;67.60;101076.91;1260037;23;610;-72
2022/12/19 03:52:23;;;;;;;;;;;;;;;10.71;67.91;101079.47;1267155;23;626;-70
2022/12/19 03:53:14;;;;;;;;;;;;;;;10.71;67.59;101086.59;1265387;23;1298;-72
2022/12/19 03:54:04;;;;;;;;;;;;;;;10.71;67.63;101091.94;1265711;23;622;-72
2022/12/19 03:54:55;;;;;;;;;;;;;;;10.73;67.82;101084.72;1265324;23;615;-72
2022/12/19 03:55:45;;;;;;;;;;;;;;;10.71;67.16;101079.47;1265594;23;606;-70
2022/12/19 03:56:37;;;;;;;;;;;;;;;10.71;67.69;101076.81;1265288;23;631;-69
2022/12/19 03:57:27;;;;;;;;;;;;;;;10.70;67.27;101080.41;1265670;23;662;-71
2022/12/19 03:58:18;;;;;;;;;;;;;;;10.71;67.83;101075.94;1259057;23;611;-69
2022/12/19 03:59:08;;;;;;;;;;;;;;;10.71;67.64;101089.28;1260612;23;1901;-69
2022/12/19 03:59:59;;;;;;;;;;;;;;;10.70;67.54;101080.41;1267052;23;582;-71
2022/12/19 04:00:49;;;;;;;;;;;;;;;10.71;67.77;101076.81;1265722;23;606;-71
2022/12/19 04:01:40;;;;;;;;;;;;;;;10.72;67.90;101069.66;1265384;23;578;-71
2022/12/19 04:02:31;;;;;;;;;;;;;;;10.71;67.31;101063.47;1265449;23;654;-71
2022/12/19 04:03:21;;;;;;;;;;;;;;;10.69;67.64;101068.03;1265634;23;642;-71
2022/12/19 04:04:12;;;;;;;;;;;;;;;10.68;68.00;101066.34;1265580;23;750;-72
2022/12/19 04:05:02;;;;;;;;;;;;;;;10.70;67.74;101068.91;1265480;23;642;-71
2022/12/19 04:05:53;;;;;;;;;;;;;;;10.69;67.31;101083.19;1265573;23;616;-71
2022/12/19 04:06:43;;;;;;;;;;;;;;;10.68;67.53;101076.13;1265735;23;646;-71
2022/12/19 04:07:34;;;;;;;;;;;;;;;10.70;67.71;101079.56;1265469;23;635;-71
2022/12/19 04:08:24;;;;;;;;;;;;;;;10.70;67.85;101083.09;1265732;23;658;-72
2022/12/19 04:09:15;;;;;;;;;;;;;;;10.71;67.54;101066.16;1265412;23;622;-71
2022/12/19 04:10:05;;;;;;;;;;;;;;;10.70;67.66;101059.09;1265477;23;623;-71
2022/12/19 04:10:55;;;;;;;;;;;;;;;10.71;67.34;101068.81;1265756;23;626;-71
2022/12/19 04:11:46;;;;;;;;;;;;;;;10.68;67.91;101089.47;1265416;23;606;-71
2022/12/19 04:12:36;;;;;;;;;;;;;;;10.67;67.96;101075.28;1265687;23;587;-71
2022/12/19 04:13:27;;;;;;;;;;;;;;;10.70;67.89;101080.41;1265241;23;602;-70
2022/12/19 04:14:17;;;;;;;;;;;;;;;10.71;67.48;101074.13;1265613;23;704;-71
2022/12/19 04:15:07;;;;;;;;;;;;;;;10.69;67.75;101065.38;1265321;23;618;-72
2022/12/19 04:15:58;;;;;;;;;;;;;;;10.70;67.67;101064.44;1265513;23;654;-72
2022/12/19 04:16:48;;;;;;;;;;;;;;;10.69;67.68;101057.38;1265596;23;612;-72
2022/12/19 04:17:39;;;;;;;;;;;;;;;10.68;67.48;101053.00;1265472;23;670;-72
2022/12/19 04:18:29;;;;;;;;;;;;;;;10.69;67.43;101059.19;1265617;23;622;-71
2022/12/19 04:19:20;;;;;;;;;;;;;;;10.70;67.26;101052.91;1265334;23;1877;-72
2022/12/19 04:20:10;;;;;;;;;;;;;;;10.72;68.05;101067.88;1265692;23;630;-71
2022/12/19 04:21:00;;;;;;;;;;;;;;;10.69;67.99;101070.72;1259017;23;725;-70
2022/12/19 04:21:51;;;;;;;;;;;;;;;10.70;67.58;101069.75;1260839;23;643;-70
2022/12/19 04:22:41;;;;;;;;;;;;;;;10.69;67.73;101061.84;1265366;23;662;-71
2022/12/19 04:23:32;;;;;;;;;;;;;;;10.70;67.74;101056.44;1265634;23;602;-71
2022/12/19 04:24:22;;;;;;;;;;;;;;;10.69;67.46;101060.06;1265720;23;650;-71
2022/12/19 04:25:13;;;;;;;;;;;;;;;10.70;67.88;101059.09;1265281;23;622;-71
2022/12/19 04:26:03;;;;;;;;;;;;;;;10.71;67.80;101055.47;1265649;23;626;-71
2022/12/19 04:26:54;;;;;;;;;;;;;;;10.73;67.68;101056.25;1258884;23;674;-70
2022/12/19 04:27:44;;;;;;;;;;;;;;;10.71;67.60;101060.81;1260849;23;653;-69
2022/12/19 04:28:35;;;;;;;;;;;;;;;10.72;67.83;101059.00;1265300;23;653;-73